sensor_id;sensor_type;location;lat;lon;timestamp;temperature;humidity
7163;DHT22;3623;47.098;15.446;2024-01-30T00:00:33;-0.40;99.90
7163;DHT22;3623;47.098;15.446;2024-01-30T00:03:01;-0.20;99.90
7163;DHT22;3623;47.098;15.446;2024-01-30T00:05:29;-0.80;99.90
7163;DHT22;3623;47.098;15.446;2024-01-30T00:07:56;-0.80;99.90
7163;DHT22;3623;47.098;15.446;2024-01-30T00:10:23;-0.80;99.90
7163;DHT22;3623;47.098;15.446;2024-01-30T00:12:51;-0.80;99.90
7163;DHT22;3623;47.098;15.446;2024-01-30T00:15:18;-0.70;99.90
7163;DHT22;3623;47.098;15.446;2024-01-30T00:17:45;-0.90;99.90
7163;DHT22;3623;47.098;15.446;2024-01-30T00:20:12;-1.00;99.90
7163;DHT22;3623;47.098;15.446;2024-01-30T00:22:41;-0.60;99.90
7163;DHT22;3623;47.098;15.446;2024-01-30T00:25:08;-0.70;99.90
7163;DHT22;3623;47.098;15.446;2024-01-30T00:27:35;-0.50;99.90
7163;DHT22;3623;47.098;15.446;2024-01-30T00:30:03;-0.90;99.90
7163;DHT22;3623;47.098;15.446;2024-01-30T00:32:30;-0.80;99.90
7163;DHT22;3623;47.098;15.446;2024-01-30T00:34:57;-0.80;99.90
7163;DHT22;3623;47.098;15.446;2024-01-30T00:37:25;-0.40;99.90
7163;DHT22;3623;47.098;15.446;2024-01-30T00:39:53;-0.50;99.90
7163;DHT22;3623;47.098;15.446;2024-01-30T00:42:20;-0.70;99.90
7163;DHT22;3623;47.098;15.446;2024-01-30T00:44:49;-0.80;99.90
7163;DHT22;3623;47.098;15.446;2024-01-30T00:47:16;-0.80;99.90
7163;DHT22;3623;47.098;15.446;2024-01-30T00:49:43;-0.80;99.90
7163;DHT22;3623;47.098;15.446;2024-01-30T00:52:11;-0.40;99.90
7163;DHT22;3623;47.098;15.446;2024-01-30T00:54:38;-0.80;99.90
7163;DHT22;3623;47.098;15.446;2024-01-30T00:57:07;-0.60;99.90
7163;DHT22;3623;47.098;15.446;2024-01-30T00:59:35;-0.70;99.90
7163;DHT22;3623;47.098;15.446;2024-01-30T01:02:02;-0.70;99.90
7163;DHT22;3623;47.098;15.446;2024-01-30T01:04:29;-0.90;99.90
7163;DHT22;3623;47.098;15.446;2024-01-30T01:06:57;-0.90;99.90
7163;DHT22;3623;47.098;15.446;2024-01-30T01:09:24;-0.70;99.90
7163;DHT22;3623;47.098;15.446;2024-01-30T01:11:51;-1.10;99.90
7163;DHT22;3623;47.098;15.446;2024-01-30T01:14:20;-1.30;99.90
7163;DHT22;3623;47.098;15.446;2024-01-30T01:16:47;-1.00;99.90
7163;DHT22;3623;47.098;15.446;2024-01-30T01:19:14;-1.20;99.90
7163;DHT22;3623;47.098;15.446;2024-01-30T01:21:41;-1.10;99.90
7163;DHT22;3623;47.098;15.446;2024-01-30T01:24:09;-1.00;99.90
7163;DHT22;3623;47.098;15.446;2024-01-30T01:26:36;-1.10;99.90
7163;DHT22;3623;47.098;15.446;2024-01-30T01:29:03;-0.80;99.90
7163;DHT22;3623;47.098;15.446;2024-01-30T01:31:37;-0.90;99.90
7163;DHT22;3623;47.098;15.446;2024-01-30T01:34:09;-1.00;99.90
7163;DHT22;3623;47.098;15.446;2024-01-30T01:36:36;-1.10;99.90
7163;DHT22;3623;47.098;15.446;2024-01-30T01:39:03;-0.50;99.90
7163;DHT22;3623;47.098;15.446;2024-01-30T01:41:31;-1.00;99.90
7163;DHT22;3623;47.098;15.446;2024-01-30T01:43:58;-1.20;99.90
7163;DHT22;3623;47.098;15.446;2024-01-30T01:46:26;-0.70;99.90
7163;DHT22;3623;47.098;15.446;2024-01-30T01:48:55;-1.30;99.90
7163;DHT22;3623;47.098;15.446;2024-01-30T01:51:26;-0.90;99.90
7163;DHT22;3623;47.098;15.446;2024-01-30T01:53:54;-1.20;99.90
7163;DHT22;3623;47.098;15.446;2024-01-30T01:56:22;-1.10;99.90
7163;DHT22;3623;47.098;15.446;2024-01-30T01:58:51;-0.90;99.90
7163;DHT22;3623;47.098;15.446;2024-01-30T02:01:21;-1.40;99.90
7163;DHT22;3623;47.098;15.446;2024-01-30T02:03:50;-1.10;99.90
7163;DHT22;3623;47.098;15.446;2024-01-30T02:06:19;-1.40;99.90
7163;DHT22;3623;47.098;15.446;2024-01-30T02:08:46;-0.80;99.90
7163;DHT22;3623;47.098;15.446;2024-01-30T02:11:13;-1.30;99.90
7163;DHT22;3623;47.098;15.446;2024-01-30T02:13:42;-2.40;99.90
7163;DHT22;3623;47.098;15.446;2024-01-30T02:16:09;-1.40;99.90
7163;DHT22;3623;47.098;15.446;2024-01-30T02:18:37;-1.30;99.90
7163;DHT22;3623;47.098;15.446;2024-01-30T02:21:10;-1.10;99.90
7163;DHT22;3623;47.098;15.446;2024-01-30T02:23:38;-0.80;99.90
7163;DHT22;3623;47.098;15.446;2024-01-30T02:26:06;-1.20;99.90
7163;DHT22;3623;47.098;15.446;2024-01-30T02:28:33;-1.20;99.90
7163;DHT22;3623;47.098;15.446;2024-01-30T02:31:00;-1.50;99.90
7163;DHT22;3623;47.098;15.446;2024-01-30T02:33:27;-1.20;99.90
7163;DHT22;3623;47.098;15.446;2024-01-30T02:35:54;-0.90;99.90
7163;DHT22;3623;47.098;15.446;2024-01-30T02:38:23;-1.10;99.90
7163;DHT22;3623;47.098;15.446;2024-01-30T02:40:52;-0.80;99.90
7163;DHT22;3623;47.098;15.446;2024-01-30T02:43:19;-1.40;99.90
7163;DHT22;3623;47.098;15.446;2024-01-30T02:45:46;-1.30;99.90
7163;DHT22;3623;47.098;15.446;2024-01-30T02:48:13;-1.20;99.90
7163;DHT22;3623;47.098;15.446;2024-01-30T02:50:41;-1.40;99.90
7163;DHT22;3623;47.098;15.446;2024-01-30T02:53:08;-1.40;99.90
7163;DHT22;3623;47.098;15.446;2024-01-30T02:55:36;-1.20;99.90
7163;DHT22;3623;47.098;15.446;2024-01-30T02:58:04;-1.50;99.90
7163;DHT22;3623;47.098;15.446;2024-01-30T03:00:31;-1.90;99.90
7163;DHT22;3623;47.098;15.446;2024-01-30T03:02:58;-1.50;99.90
7163;DHT22;3623;47.098;15.446;2024-01-30T03:05:25;-1.50;99.90
7163;DHT22;3623;47.098;15.446;2024-01-30T03:07:52;-1.80;99.90
7163;DHT22;3623;47.098;15.446;2024-01-30T03:10:19;-1.70;99.90
7163;DHT22;3623;47.098;15.446;2024-01-30T03:12:48;-2.00;99.90
7163;DHT22;3623;47.098;15.446;2024-01-30T03:15:15;-1.80;99.90
7163;DHT22;3623;47.098;15.446;2024-01-30T03:17:42;-1.50;99.90
7163;DHT22;3623;47.098;15.446;2024-01-30T03:20:10;-1.60;99.90
7163;DHT22;3623;47.098;15.446;2024-01-30T03:22:38;-1.90;99.90
7163;DHT22;3623;47.098;15.446;2024-01-30T03:25:05;-1.60;99.90
7163;DHT22;3623;47.098;15.446;2024-01-30T03:27:32;-2.00;99.90
7163;DHT22;3623;47.098;15.446;2024-01-30T03:30:01;-1.30;99.90
7163;DHT22;3623;47.098;15.446;2024-01-30T03:32:28;-1.50;99.90
7163;DHT22;3623;47.098;15.446;2024-01-30T03:34:55;-1.50;99.90
7163;DHT22;3623;47.098;15.446;2024-01-30T03:37:23;-1.60;99.90
7163;DHT22;3623;47.098;15.446;2024-01-30T03:39:51;-2.00;99.90
7163;DHT22;3623;47.098;15.446;2024-01-30T03:42:18;-1.80;99.90
7163;DHT22;3623;47.098;15.446;2024-01-30T03:44:45;-1.60;99.90
7163;DHT22;3623;47.098;15.446;2024-01-30T03:47:13;-1.90;99.90
7163;DHT22;3623;47.098;15.446;2024-01-30T03:49:41;-1.80;99.90
7163;DHT22;3623;47.098;15.446;2024-01-30T03:52:08;-1.80;99.90
7163;DHT22;3623;47.098;15.446;2024-01-30T03:54:35;-1.70;99.90
7163;DHT22;3623;47.098;15.446;2024-01-30T03:57:02;-1.90;99.90
7163;DHT22;3623;47.098;15.446;2024-01-30T03:59:29;-2.20;99.90
7163;DHT22;3623;47.098;15.446;2024-01-30T04:01:57;-1.70;99.90
7163;DHT22;3623;47.098;15.446;2024-01-30T04:04:25;-1.90;99.90
7163;DHT22;3623;47.098;15.446;2024-01-30T04:06:52;-2.00;99.90
7163;DHT22;3623;47.098;15.446;2024-01-30T04:09:19;-2.00;99.90
7163;DHT22;3623;47.098;15.446;2024-01-30T04:11:47;-1.70;99.90
7163;DHT22;3623;47.098;15.446;2024-01-30T04:14:14;-2.10;99.90
7163;DHT22;3623;47.098;15.446;2024-01-30T04:16:41;-1.70;99.90
7163;DHT22;3623;47.098;15.446;2024-01-30T04:19:08;-2.10;99.90
7163;DHT22;3623;47.098;15.446;2024-01-30T04:21:37;-1.40;99.90
7163;DHT22;3623;47.098;15.446;2024-01-30T04:24:05;-2.20;99.90
7163;DHT22;3623;47.098;15.446;2024-01-30T04:26:32;-2.30;99.90
7163;DHT22;3623;47.098;15.446;2024-01-30T04:28:59;-1.80;99.90
7163;DHT22;3623;47.098;15.446;2024-01-30T04:31:26;-2.50;99.90
7163;DHT22;3623;47.098;15.446;2024-01-30T04:33:53;-1.50;99.90
7163;DHT22;3623;47.098;15.446;2024-01-30T04:36:20;-2.20;99.90
7163;DHT22;3623;47.098;15.446;2024-01-30T04:38:49;-2.00;99.90
7163;DHT22;3623;47.098;15.446;2024-01-30T04:41:16;-2.30;99.90
7163;DHT22;3623;47.098;15.446;2024-01-30T04:43:43;-1.70;99.90
7163;DHT22;3623;47.098;15.446;2024-01-30T04:46:10;-1.70;99.90
7163;DHT22;3623;47.098;15.446;2024-01-30T04:48:37;-2.00;99.90
7163;DHT22;3623;47.098;15.446;2024-01-30T04:51:05;-1.40;99.90
7163;DHT22;3623;47.098;15.446;2024-01-30T04:53:32;-1.60;99.90
7163;DHT22;3623;47.098;15.446;2024-01-30T04:56:00;-2.30;99.90
7163;DHT22;3623;47.098;15.446;2024-01-30T04:58:27;-2.20;99.90
7163;DHT22;3623;47.098;15.446;2024-01-30T05:00:54;-2.30;99.90
7163;DHT22;3623;47.098;15.446;2024-01-30T05:03:22;-2.20;99.90
7163;DHT22;3623;47.098;15.446;2024-01-30T05:05:50;-2.10;99.90
7163;DHT22;3623;47.098;15.446;2024-01-30T05:08:17;-1.80;99.90
7163;DHT22;3623;47.098;15.446;2024-01-30T05:10:45;-1.80;99.90
7163;DHT22;3623;47.098;15.446;2024-01-30T05:13:14;-2.00;99.90
7163;DHT22;3623;47.098;15.446;2024-01-30T05:15:41;-1.60;99.90
7163;DHT22;3623;47.098;15.446;2024-01-30T05:18:08;-1.70;99.90
7163;DHT22;3623;47.098;15.446;2024-01-30T05:20:35;-1.70;99.90
7163;DHT22;3623;47.098;15.446;2024-01-30T05:23:03;-1.90;99.90
7163;DHT22;3623;47.098;15.446;2024-01-30T05:25:30;-2.00;99.90
7163;DHT22;3623;47.098;15.446;2024-01-30T05:27:57;-1.30;99.90
7163;DHT22;3623;47.098;15.446;2024-01-30T05:30:25;-1.10;99.90
7163;DHT22;3623;47.098;15.446;2024-01-30T05:32:53;-1.90;99.90
7163;DHT22;3623;47.098;15.446;2024-01-30T05:35:20;-1.60;99.90
7163;DHT22;3623;47.098;15.446;2024-01-30T05:37:49;-1.40;99.90
7163;DHT22;3623;47.098;15.446;2024-01-30T05:40:16;-1.30;99.90
7163;DHT22;3623;47.098;15.446;2024-01-30T05:42:43;-2.00;99.90
7163;DHT22;3623;47.098;15.446;2024-01-30T05:45:10;-1.50;99.90
7163;DHT22;3623;47.098;15.446;2024-01-30T05:47:39;-2.00;99.90
7163;DHT22;3623;47.098;15.446;2024-01-30T05:50:07;-1.80;99.90
7163;DHT22;3623;47.098;15.446;2024-01-30T05:52:34;-2.00;99.90
7163;DHT22;3623;47.098;15.446;2024-01-30T05:55:01;-2.10;99.90
7163;DHT22;3623;47.098;15.446;2024-01-30T05:57:29;-2.10;99.90
7163;DHT22;3623;47.098;15.446;2024-01-30T05:59:56;-1.60;99.90
7163;DHT22;3623;47.098;15.446;2024-01-30T06:02:23;-2.00;99.90
7163;DHT22;3623;47.098;15.446;2024-01-30T06:04:52;-1.70;99.90
7163;DHT22;3623;47.098;15.446;2024-01-30T06:07:20;-1.70;99.90
7163;DHT22;3623;47.098;15.446;2024-01-30T06:09:48;-1.80;99.90
7163;DHT22;3623;47.098;15.446;2024-01-30T06:12:15;-2.00;99.90
7163;DHT22;3623;47.098;15.446;2024-01-30T06:14:42;-1.60;99.90
7163;DHT22;3623;47.098;15.446;2024-01-30T06:17:09;-1.80;99.90
7163;DHT22;3623;47.098;15.446;2024-01-30T06:19:37;-1.50;99.90
7163;DHT22;3623;47.098;15.446;2024-01-30T06:22:06;-1.70;99.90
7163;DHT22;3623;47.098;15.446;2024-01-30T06:24:33;-1.70;99.90
7163;DHT22;3623;47.098;15.446;2024-01-30T06:27:01;-1.50;99.90
7163;DHT22;3623;47.098;15.446;2024-01-30T06:29:28;-2.20;99.90
7163;DHT22;3623;47.098;15.446;2024-01-30T06:31:55;-2.30;99.90
7163;DHT22;3623;47.098;15.446;2024-01-30T06:34:23;-2.30;99.90
7163;DHT22;3623;47.098;15.446;2024-01-30T06:36:52;-1.70;99.90
7163;DHT22;3623;47.098;15.446;2024-01-30T06:39:21;-2.10;99.90
7163;DHT22;3623;47.098;15.446;2024-01-30T06:41:49;-2.10;99.90
7163;DHT22;3623;47.098;15.446;2024-01-30T06:44:16;-2.00;99.90
7163;DHT22;3623;47.098;15.446;2024-01-30T06:46:43;-1.40;99.90
7163;DHT22;3623;47.098;15.446;2024-01-30T06:49:10;-2.00;99.90
7163;DHT22;3623;47.098;15.446;2024-01-30T06:51:37;-2.10;99.90
7163;DHT22;3623;47.098;15.446;2024-01-30T06:54:05;-1.50;99.90
7163;DHT22;3623;47.098;15.446;2024-01-30T06:56:33;-1.90;99.90
7163;DHT22;3623;47.098;15.446;2024-01-30T06:59:01;-1.70;99.90
7163;DHT22;3623;47.098;15.446;2024-01-30T07:01:29;-2.00;99.90
7163;DHT22;3623;47.098;15.446;2024-01-30T07:03:56;-2.10;99.90
7163;DHT22;3623;47.098;15.446;2024-01-30T07:06:23;-2.00;99.90
7163;DHT22;3623;47.098;15.446;2024-01-30T07:08:51;-2.10;99.90
7163;DHT22;3623;47.098;15.446;2024-01-30T07:11:21;-1.90;99.90
7163;DHT22;3623;47.098;15.446;2024-01-30T07:13:51;-1.60;99.90
7163;DHT22;3623;47.098;15.446;2024-01-30T07:16:18;-1.90;99.90
7163;DHT22;3623;47.098;15.446;2024-01-30T07:18:46;-1.80;99.90
7163;DHT22;3623;47.098;15.446;2024-01-30T07:21:13;-1.80;99.90
7163;DHT22;3623;47.098;15.446;2024-01-30T07:23:40;-1.80;99.90
7163;DHT22;3623;47.098;15.446;2024-01-30T07:26:08;-1.80;99.90
7163;DHT22;3623;47.098;15.446;2024-01-30T07:28:35;-1.70;99.90
7163;DHT22;3623;47.098;15.446;2024-01-30T07:31:04;-1.30;99.90
7163;DHT22;3623;47.098;15.446;2024-01-30T07:33:32;-1.40;99.90
7163;DHT22;3623;47.098;15.446;2024-01-30T07:35:59;-1.90;99.90
7163;DHT22;3623;47.098;15.446;2024-01-30T07:38:27;-1.40;99.90
7163;DHT22;3623;47.098;15.446;2024-01-30T07:40:54;-1.70;99.90
7163;DHT22;3623;47.098;15.446;2024-01-30T07:43:21;-1.30;99.90
7163;DHT22;3623;47.098;15.446;2024-01-30T07:45:48;-1.60;99.90
7163;DHT22;3623;47.098;15.446;2024-01-30T07:48:17;-1.70;99.90
7163;DHT22;3623;47.098;15.446;2024-01-30T07:50:44;-1.60;99.90
7163;DHT22;3623;47.098;15.446;2024-01-30T07:53:11;-1.10;99.90
7163;DHT22;3623;47.098;15.446;2024-01-30T07:55:50;-1.40;99.90
7163;DHT22;3623;47.098;15.446;2024-01-30T07:58:17;-1.20;99.90
7163;DHT22;3623;47.098;15.446;2024-01-30T08:00:44;-1.60;99.90
7163;DHT22;3623;47.098;15.446;2024-01-30T08:03:12;-1.40;99.90
7163;DHT22;3623;47.098;15.446;2024-01-30T08:05:40;-1.30;99.90
7163;DHT22;3623;47.098;15.446;2024-01-30T08:08:07;-1.30;99.90
7163;DHT22;3623;47.098;15.446;2024-01-30T08:10:34;-1.30;99.90
7163;DHT22;3623;47.098;15.446;2024-01-30T08:13:02;-1.20;99.90
7163;DHT22;3623;47.098;15.446;2024-01-30T08:15:29;-1.30;99.90
7163;DHT22;3623;47.098;15.446;2024-01-30T08:17:56;-1.00;99.90
7163;DHT22;3623;47.098;15.446;2024-01-30T08:20:23;-1.10;99.90
7163;DHT22;3623;47.098;15.446;2024-01-30T08:22:52;-1.00;99.90
7163;DHT22;3623;47.098;15.446;2024-01-30T08:25:19;-1.10;99.90
7163;DHT22;3623;47.098;15.446;2024-01-30T08:27:47;-0.80;99.90
7163;DHT22;3623;47.098;15.446;2024-01-30T08:30:14;-1.00;99.90
7163;DHT22;3623;47.098;15.446;2024-01-30T08:32:42;-0.90;99.90
7163;DHT22;3623;47.098;15.446;2024-01-30T08:35:09;-0.50;99.90
7163;DHT22;3623;47.098;15.446;2024-01-30T08:37:39;-0.50;99.90
7163;DHT22;3623;47.098;15.446;2024-01-30T08:40:08;0.20;99.90
7163;DHT22;3623;47.098;15.446;2024-01-30T08:42:36;0.50;99.90
7163;DHT22;3623;47.098;15.446;2024-01-30T08:45:04;0.60;99.90
7163;DHT22;3623;47.098;15.446;2024-01-30T08:47:31;0.90;99.90
7163;DHT22;3623;47.098;15.446;2024-01-30T08:49:59;1.10;99.90
7163;DHT22;3623;47.098;15.446;2024-01-30T08:52:26;1.10;99.90
7163;DHT22;3623;47.098;15.446;2024-01-30T08:54:53;1.20;99.90
7163;DHT22;3623;47.098;15.446;2024-01-30T08:57:22;1.10;99.90
7163;DHT22;3623;47.098;15.446;2024-01-30T08:59:49;1.10;99.90
7163;DHT22;3623;47.098;15.446;2024-01-30T09:02:16;1.20;99.90
7163;DHT22;3623;47.098;15.446;2024-01-30T09:04:43;1.10;99.90
7163;DHT22;3623;47.098;15.446;2024-01-30T09:07:11;1.10;99.90
7163;DHT22;3623;47.098;15.446;2024-01-30T09:09:39;1.20;99.90
7163;DHT22;3623;47.098;15.446;2024-01-30T09:12:07;1.10;99.90
7163;DHT22;3623;47.098;15.446;2024-01-30T09:14:37;0.90;99.90
7163;DHT22;3623;47.098;15.446;2024-01-30T09:17:04;1.00;99.90
7163;DHT22;3623;47.098;15.446;2024-01-30T09:19:31;1.10;99.90
7163;DHT22;3623;47.098;15.446;2024-01-30T09:21:58;1.30;99.90
7163;DHT22;3623;47.098;15.446;2024-01-30T09:24:26;1.40;99.90
7163;DHT22;3623;47.098;15.446;2024-01-30T09:26:53;1.60;99.90
7163;DHT22;3623;47.098;15.446;2024-01-30T09:29:21;2.00;99.90
7163;DHT22;3623;47.098;15.446;2024-01-30T09:31:50;2.60;99.90
7163;DHT22;3623;47.098;15.446;2024-01-30T09:34:17;3.10;99.90
7163;DHT22;3623;47.098;15.446;2024-01-30T09:36:45;3.50;99.90
7163;DHT22;3623;47.098;15.446;2024-01-30T09:39:12;3.40;99.90
7163;DHT22;3623;47.098;15.446;2024-01-30T09:41:45;3.40;99.90
7163;DHT22;3623;47.098;15.446;2024-01-30T09:44:12;3.30;99.90
7163;DHT22;3623;47.098;15.446;2024-01-30T09:46:40;3.20;99.90
7163;DHT22;3623;47.098;15.446;2024-01-30T09:49:09;3.30;99.90
7163;DHT22;3623;47.098;15.446;2024-01-30T09:51:36;3.30;99.90
7163;DHT22;3623;47.098;15.446;2024-01-30T09:54:04;3.10;99.90
7163;DHT22;3623;47.098;15.446;2024-01-30T09:56:31;3.50;99.90
7163;DHT22;3623;47.098;15.446;2024-01-30T09:58:58;3.40;99.90
7163;DHT22;3623;47.098;15.446;2024-01-30T10:01:25;3.50;99.90
7163;DHT22;3623;47.098;15.446;2024-01-30T10:03:54;3.70;99.90
7163;DHT22;3623;47.098;15.446;2024-01-30T10:06:24;3.90;99.90
7163;DHT22;3623;47.098;15.446;2024-01-30T10:08:52;4.00;99.90
7163;DHT22;3623;47.098;15.446;2024-01-30T10:11:19;4.20;99.90
7163;DHT22;3623;47.098;15.446;2024-01-30T10:13:46;4.30;99.90
7163;DHT22;3623;47.098;15.446;2024-01-30T10:16:14;4.70;99.90
7163;DHT22;3623;47.098;15.446;2024-01-30T10:18:42;5.40;99.90
7163;DHT22;3623;47.098;15.446;2024-01-30T10:21:09;5.90;99.90
7163;DHT22;3623;47.098;15.446;2024-01-30T10:23:38;6.10;98.20
7163;DHT22;3623;47.098;15.446;2024-01-30T10:26:07;6.60;97.70
7163;DHT22;3623;47.098;15.446;2024-01-30T10:28:34;6.80;98.10
7163;DHT22;3623;47.098;15.446;2024-01-30T10:31:01;7.90;98.10
7163;DHT22;3623;47.098;15.446;2024-01-30T10:33:29;7.50;96.70
7163;DHT22;3623;47.098;15.446;2024-01-30T10:36:00;8.00;96.70
7163;DHT22;3623;47.098;15.446;2024-01-30T10:38:29;7.90;96.30
7163;DHT22;3623;47.098;15.446;2024-01-30T10:40:59;8.10;95.80
7163;DHT22;3623;47.098;15.446;2024-01-30T10:43:31;7.50;95.60
7163;DHT22;3623;47.098;15.446;2024-01-30T10:46:07;7.20;96.40
7163;DHT22;3623;47.098;15.446;2024-01-30T10:48:42;7.00;95.60
7163;DHT22;3623;47.098;15.446;2024-01-30T10:51:10;7.00;96.50
7163;DHT22;3623;47.098;15.446;2024-01-30T10:53:38;7.10;96.40
7163;DHT22;3623;47.098;15.446;2024-01-30T10:56:08;7.00;95.80
7163;DHT22;3623;47.098;15.446;2024-01-30T10:58:37;7.20;96.20
7163;DHT22;3623;47.098;15.446;2024-01-30T11:01:05;7.60;96.10
7163;DHT22;3623;47.098;15.446;2024-01-30T11:03:33;8.40;96.00
7163;DHT22;3623;47.098;15.446;2024-01-30T11:06:02;8.70;94.70
7163;DHT22;3623;47.098;15.446;2024-01-30T11:08:32;9.50;94.60
7163;DHT22;3623;47.098;15.446;2024-01-30T11:10:59;9.70;93.80
7163;DHT22;3623;47.098;15.446;2024-01-30T11:13:31;9.80;93.20
7163;DHT22;3623;47.098;15.446;2024-01-30T11:16:00;10.10;92.30
7163;DHT22;3623;47.098;15.446;2024-01-30T11:18:30;10.10;91.80
7163;DHT22;3623;47.098;15.446;2024-01-30T11:20:57;10.00;91.20
7163;DHT22;3623;47.098;15.446;2024-01-30T11:23:26;10.30;92.40
7163;DHT22;3623;47.098;15.446;2024-01-30T11:25:56;10.20;90.90
7163;DHT22;3623;47.098;15.446;2024-01-30T11:28:24;10.30;91.70
7163;DHT22;3623;47.098;15.446;2024-01-30T11:31:03;10.80;91.30
7163;DHT22;3623;47.098;15.446;2024-01-30T11:33:30;11.00;90.70
7163;DHT22;3623;47.098;15.446;2024-01-30T11:35:59;10.90;90.90
7163;DHT22;3623;47.098;15.446;2024-01-30T11:38:27;10.50;90.40
7163;DHT22;3623;47.098;15.446;2024-01-30T11:40:55;11.20;90.80
7163;DHT22;3623;47.098;15.446;2024-01-30T11:43:22;11.50;89.80
7163;DHT22;3623;47.098;15.446;2024-01-30T11:45:50;11.10;88.40
7163;DHT22;3623;47.098;15.446;2024-01-30T11:48:18;11.80;90.10
7163;DHT22;3623;47.098;15.446;2024-01-30T11:50:46;12.10;88.60
7163;DHT22;3623;47.098;15.446;2024-01-30T11:53:14;12.40;88.40
7163;DHT22;3623;47.098;15.446;2024-01-30T11:55:41;12.80;87.10
7163;DHT22;3623;47.098;15.446;2024-01-30T11:58:08;12.80;85.70
7163;DHT22;3623;47.098;15.446;2024-01-30T12:00:36;13.50;85.50
7163;DHT22;3623;47.098;15.446;2024-01-30T12:03:03;14.10;84.30
7163;DHT22;3623;47.098;15.446;2024-01-30T12:05:34;14.40;83.50
7163;DHT22;3623;47.098;15.446;2024-01-30T12:08:02;13.10;81.10
7163;DHT22;3623;47.098;15.446;2024-01-30T12:10:29;12.50;82.60
7163;DHT22;3623;47.098;15.446;2024-01-30T12:12:56;13.40;84.00
7163;DHT22;3623;47.098;15.446;2024-01-30T12:15:24;14.00;82.30
7163;DHT22;3623;47.098;15.446;2024-01-30T12:17:51;13.70;80.40
7163;DHT22;3623;47.098;15.446;2024-01-30T12:20:19;13.30;81.10
7163;DHT22;3623;47.098;15.446;2024-01-30T12:22:49;12.60;81.00
7163;DHT22;3623;47.098;15.446;2024-01-30T12:25:18;12.70;81.80
7163;DHT22;3623;47.098;15.446;2024-01-30T12:27:48;13.00;80.20
7163;DHT22;3623;47.098;15.446;2024-01-30T12:30:18;14.00;80.20
7163;DHT22;3623;47.098;15.446;2024-01-30T12:32:47;14.10;78.70
7163;DHT22;3623;47.098;15.446;2024-01-30T12:35:15;14.20;78.70
7163;DHT22;3623;47.098;15.446;2024-01-30T12:37:43;13.70;79.30
7163;DHT22;3623;47.098;15.446;2024-01-30T12:40:13;14.00;78.70
7163;DHT22;3623;47.098;15.446;2024-01-30T12:42:40;14.20;78.60
7163;DHT22;3623;47.098;15.446;2024-01-30T12:45:08;14.90;76.60
7163;DHT22;3623;47.098;15.446;2024-01-30T12:47:36;14.20;76.20
7163;DHT22;3623;47.098;15.446;2024-01-30T12:50:03;14.30;78.40
7163;DHT22;3623;47.098;15.446;2024-01-30T12:52:31;15.50;77.00
7163;DHT22;3623;47.098;15.446;2024-01-30T12:54:58;16.10;75.20
7163;DHT22;3623;47.098;15.446;2024-01-30T12:57:27;16.20;74.30
7163;DHT22;3623;47.098;15.446;2024-01-30T12:59:54;15.40;74.40
7163;DHT22;3623;47.098;15.446;2024-01-30T13:02:21;15.30;74.40
7163;DHT22;3623;47.098;15.446;2024-01-30T13:04:49;15.70;75.50
7163;DHT22;3623;47.098;15.446;2024-01-30T13:07:16;16.10;73.10
7163;DHT22;3623;47.098;15.446;2024-01-30T13:09:43;15.30;73.90
7163;DHT22;3623;47.098;15.446;2024-01-30T13:12:11;15.40;74.60
7163;DHT22;3623;47.098;15.446;2024-01-30T13:14:39;14.90;73.90
7163;DHT22;3623;47.098;15.446;2024-01-30T13:17:06;13.60;75.10
7163;DHT22;3623;47.098;15.446;2024-01-30T13:19:34;12.90;77.60
7163;DHT22;3623;47.098;15.446;2024-01-30T13:22:01;12.00;78.70
7163;DHT22;3623;47.098;15.446;2024-01-30T13:24:28;10.80;79.80
7163;DHT22;3623;47.098;15.446;2024-01-30T13:26:55;10.80;81.80
7163;DHT22;3623;47.098;15.446;2024-01-30T13:29:23;10.40;81.70
7163;DHT22;3623;47.098;15.446;2024-01-30T13:31:51;10.40;83.00
7163;DHT22;3623;47.098;15.446;2024-01-30T13:34:18;10.30;83.50
7163;DHT22;3623;47.098;15.446;2024-01-30T13:36:45;9.90;84.40
7163;DHT22;3623;47.098;15.446;2024-01-30T13:39:14;9.30;85.60
7163;DHT22;3623;47.098;15.446;2024-01-30T13:41:41;9.30;87.50
7163;DHT22;3623;47.098;15.446;2024-01-30T13:44:09;8.50;88.10
7163;DHT22;3623;47.098;15.446;2024-01-30T13:46:36;8.00;89.90
7163;DHT22;3623;47.098;15.446;2024-01-30T13:49:06;7.80;90.10
7163;DHT22;3623;47.098;15.446;2024-01-30T13:51:33;7.80;90.40
7163;DHT22;3623;47.098;15.446;2024-01-30T13:54:00;7.70;90.60
7163;DHT22;3623;47.098;15.446;2024-01-30T13:56:27;7.50;90.90
7163;DHT22;3623;47.098;15.446;2024-01-30T13:58:56;7.40;91.50
7163;DHT22;3623;47.098;15.446;2024-01-30T14:01:23;7.50;91.80
7163;DHT22;3623;47.098;15.446;2024-01-30T14:03:50;7.50;91.50
7163;DHT22;3623;47.098;15.446;2024-01-30T14:06:19;7.30;91.60
7163;DHT22;3623;47.098;15.446;2024-01-30T14:08:46;7.00;91.90
7163;DHT22;3623;47.098;15.446;2024-01-30T14:11:13;7.00;92.20
7163;DHT22;3623;47.098;15.446;2024-01-30T14:13:41;6.70;92.70
7163;DHT22;3623;47.098;15.446;2024-01-30T14:16:08;6.60;92.60
7163;DHT22;3623;47.098;15.446;2024-01-30T14:18:35;6.50;92.80
7163;DHT22;3623;47.098;15.446;2024-01-30T14:21:02;6.40;93.00
7163;DHT22;3623;47.098;15.446;2024-01-30T14:23:31;6.50;93.10
7163;DHT22;3623;47.098;15.446;2024-01-30T14:25:58;6.30;93.50
7163;DHT22;3623;47.098;15.446;2024-01-30T14:28:25;6.20;93.50
7163;DHT22;3623;47.098;15.446;2024-01-30T14:30:52;6.20;93.70
7163;DHT22;3623;47.098;15.446;2024-01-30T14:33:19;6.10;93.90
7163;DHT22;3623;47.098;15.446;2024-01-30T14:35:47;6.20;93.70
7163;DHT22;3623;47.098;15.446;2024-01-30T14:38:14;6.10;93.70
7163;DHT22;3623;47.098;15.446;2024-01-30T14:40:42;6.10;93.70
7163;DHT22;3623;47.098;15.446;2024-01-30T14:43:09;6.10;93.50
7163;DHT22;3623;47.098;15.446;2024-01-30T14:45:37;5.90;93.60
7163;DHT22;3623;47.098;15.446;2024-01-30T14:48:04;6.10;93.90
7163;DHT22;3623;47.098;15.446;2024-01-30T14:50:33;5.90;93.80
7163;DHT22;3623;47.098;15.446;2024-01-30T14:53:01;5.70;93.80
7163;DHT22;3623;47.098;15.446;2024-01-30T14:55:28;5.50;94.20
7163;DHT22;3623;47.098;15.446;2024-01-30T14:57:56;5.40;94.30
7163;DHT22;3623;47.098;15.446;2024-01-30T15:00:25;5.30;94.60
7163;DHT22;3623;47.098;15.446;2024-01-30T15:02:52;5.50;95.00
7163;DHT22;3623;47.098;15.446;2024-01-30T15:05:19;5.20;94.60
7163;DHT22;3623;47.098;15.446;2024-01-30T15:07:46;5.40;95.00
7163;DHT22;3623;47.098;15.446;2024-01-30T15:10:14;5.20;94.70
7163;DHT22;3623;47.098;15.446;2024-01-30T15:12:41;5.20;94.50
7163;DHT22;3623;47.098;15.446;2024-01-30T15:15:09;5.20;94.60
7163;DHT22;3623;47.098;15.446;2024-01-30T15:17:37;5.10;94.70
7163;DHT22;3623;47.098;15.446;2024-01-30T15:20:05;5.00;94.80
7163;DHT22;3623;47.098;15.446;2024-01-30T15:22:32;5.10;94.70
7163;DHT22;3623;47.098;15.446;2024-01-30T15:24:59;5.00;94.80
7163;DHT22;3623;47.098;15.446;2024-01-30T15:27:27;5.00;95.10
7163;DHT22;3623;47.098;15.446;2024-01-30T15:29:54;4.80;95.20
7163;DHT22;3623;47.098;15.446;2024-01-30T15:32:24;4.80;95.30
7163;DHT22;3623;47.098;15.446;2024-01-30T15:34:51;4.80;95.50
7163;DHT22;3623;47.098;15.446;2024-01-30T15:37:18;4.70;95.60
7163;DHT22;3623;47.098;15.446;2024-01-30T15:39:45;4.70;95.70
7163;DHT22;3623;47.098;15.446;2024-01-30T15:42:13;4.60;95.90
7163;DHT22;3623;47.098;15.446;2024-01-30T15:44:40;4.70;96.10
7163;DHT22;3623;47.098;15.446;2024-01-30T15:47:07;4.60;96.30
7163;DHT22;3623;47.098;15.446;2024-01-30T15:49:35;4.50;96.20
7163;DHT22;3623;47.098;15.446;2024-01-30T15:52:03;4.40;96.40